Time;durP1;ratioP1;P1;durP2;ratioP2;P2;SDS_P1;SDS_P2;PMS_P1;PMS_P2;Temp;Humidity;BMP_temperature;BMP_pressure;BME280_temperature;BME280_humidity;BME280_pressure;Samples;Min_cycle;Max_cycle;Signal;HPM_P1;HPM_P2
2023/09/10 00:03:32;;;;;;;12.13;7.32;;;;;;;;;;5852152;23;20782;-83
2023/09/10 00:05:59;;;;;;;12.88;6.80;;;;;;;;;;5016896;28;20033;-82
2023/09/10 00:08:25;;;;;;;17.13;8.48;;;;;;;;;;5020236;28;20472;-82
2023/09/10 00:10:51;;;;;;;11.88;7.07;;;;;;;;;;5018908;28;20037;-82
2023/09/10 00:13:17;;;;;;;12.48;6.82;;;;;;;;;;5016835;28;20026;-82
2023/09/10 00:15:43;;;;;;;15.25;7.40;;;;;;;;;;5026808;28;20036;-83
2023/09/10 00:18:09;;;;;;;16.27;6.95;;;;;;;;;;5025084;28;20021;-82
2023/09/10 00:20:35;;;;;;;15.50;7.30;;;;;;;;;;5027452;28;20054;-82
2023/09/10 00:23:01;;;;;;;12.80;6.80;;;;;;;;;;5026354;28;20022;-83
2023/09/10 00:25:29;;;;;;;19.60;7.18;;;;;;;;;;5026578;28;20447;-83
2023/09/10 00:27:57;;;;;;;9.95;6.50;;;;;;;;;;5013946;28;20063;-82
2023/09/10 00:30:23;;;;;;;11.40;6.88;;;;;;;;;;5026333;28;20029;-83
2023/09/10 00:32:49;;;;;;;10.05;5.95;;;;;;;;;;5010038;28;20391;-83
2023/09/10 00:35:15;;;;;;;8.45;5.30;;;;;;;;;;5009345;28;20451;-83
2023/09/10 00:37:41;;;;;;;17.70;6.88;;;;;;;;;;5024521;28;20041;-83
2023/09/10 00:40:09;;;;;;;14.45;6.47;;;;;;;;;;5026274;28;20060;-83
2023/09/10 00:42:35;;;;;;;11.40;6.68;;;;;;;;;;5025178;28;20030;-83
2023/09/10 00:45:01;;;;;;;12.13;6.00;;;;;;;;;;5026965;28;20051;-82
2023/09/10 00:47:27;;;;;;;11.75;6.22;;;;;;;;;;5026795;28;20032;-83
2023/09/10 00:49:53;;;;;;;11.95;6.50;;;;;;;;;;5025986;28;20034;-82
2023/09/10 00:52:21;;;;;;;8.88;5.68;;;;;;;;;;5022732;28;20395;-82
2023/09/10 00:54:48;;;;;;;10.23;5.95;;;;;;;;;;5006746;28;20034;-83
2023/09/10 00:57:14;;;;;;;9.75;6.15;;;;;;;;;;5025135;28;20036;-83
2023/09/10 00:59:41;;;;;;;8.23;5.25;;;;;;;;;;5024953;28;20017;-83
2023/09/10 01:02:07;;;;;;;9.95;5.47;;;;;;;;;;5008213;28;20022;-83
2023/09/10 01:04:33;;;;;;;11.13;6.07;;;;;;;;;;5010547;28;20084;-83
2023/09/10 01:06:59;;;;;;;11.55;6.57;;;;;;;;;;5006922;28;20482;-83
2023/09/10 01:09:25;;;;;;;8.32;5.45;;;;;;;;;;5010242;28;20026;-83
2023/09/10 01:12:04;;;;;;;12.25;5.18;;;;;;;;;;5004117;28;20084;-83
2023/09/10 01:14:46;;;;;;;8.00;5.32;;;;;;;;;;5009150;28;20045;-82
2023/09/10 01:17:24;;;;;;;9.75;5.47;;;;;;;;;;5010488;28;20025;-82
2023/09/10 01:19:53;;;;;;;6.65;4.50;;;;;;;;;;5002223;28;20030;-83
2023/09/10 01:22:25;;;;;;;9.75;6.03;;;;;;;;;;5010334;28;20033;-82
2023/09/10 01:24:52;;;;;;;8.23;5.43;;;;;;;;;;5005018;28;20058;-83
2023/09/10 01:27:18;;;;;;;8.80;5.47;;;;;;;;;;5007522;28;20085;-83
2023/09/10 01:29:44;;;;;;;9.38;6.18;;;;;;;;;;5010585;28;20034;-82
2023/09/10 01:32:25;;;;;;;8.48;5.43;;;;;;;;;;5008022;28;20061;-83
2023/09/10 01:35:00;;;;;;;8.55;4.85;;;;;;;;;;5005523;28;20048;-83
2023/09/10 01:37:30;;;;;;;9.32;5.38;;;;;;;;;;5006890;28;20244;-82
2023/09/10 01:39:57;;;;;;;7.78;4.72;;;;;;;;;;5008436;28;20060;-83
2023/09/10 01:42:23;;;;;;;10.93;5.40;;;;;;;;;;5008928;28;20034;-82
2023/09/10 01:44:50;;;;;;;10.25;5.50;;;;;;;;;;5005777;28;20040;-82
2023/09/10 01:47:17;;;;;;;6.15;4.20;;;;;;;;;;5008418;28;20080;-82
2023/09/10 01:49:43;;;;;;;8.20;5.13;;;;;;;;;;5004876;28;20034;-82
2023/09/10 01:52:09;;;;;;;8.20;5.43;;;;;;;;;;5009460;28;20041;-82
2023/09/10 01:54:34;;;;;;;6.47;4.57;;;;;;;;;;5009854;28;20033;-82
2023/09/10 01:57:00;;;;;;;10.50;5.78;;;;;;;;;;5006180;28;20061;-82
2023/09/10 01:59:26;;;;;;;7.25;4.75;;;;;;;;;;5009735;28;20107;-83
2023/09/10 02:01:52;;;;;;;8.02;5.05;;;;;;;;;;5006916;28;20024;-82
2023/09/10 02:04:18;;;;;;;9.50;5.10;;;;;;;;;;5003245;28;20042;-82
2023/09/10 02:06:44;;;;;;;8.38;5.47;;;;;;;;;;4992161;28;20034;-83
2023/09/10 02:09:10;;;;;;;8.10;4.95;;;;;;;;;;4989589;28;20065;-82
2023/09/10 02:11:36;;;;;;;8.82;5.70;;;;;;;;;;4995358;28;20026;-82
2023/09/10 02:14:02;;;;;;;9.05;4.75;;;;;;;;;;4993728;28;20026;-82
2023/09/10 02:16:28;;;;;;;7.10;4.65;;;;;;;;;;4992994;28;20088;-82
2023/09/10 02:18:54;;;;;;;8.77;5.38;;;;;;;;;;5000471;28;20030;-82
2023/09/10 02:21:20;;;;;;;7.65;5.30;;;;;;;;;;4998808;28;20026;-82
2023/09/10 02:23:46;;;;;;;7.03;4.22;;;;;;;;;;5000257;28;20431;-82
2023/09/10 02:26:12;;;;;;;12.75;5.10;;;;;;;;;;4993517;28;20480;-82
2023/09/10 02:28:39;;;;;;;9.13;4.53;;;;;;;;;;4987259;28;20050;-82
2023/09/10 02:31:06;;;;;;;8.77;4.85;;;;;;;;;;4993513;28;20034;-82
2023/09/10 02:33:32;;;;;;;7.18;4.18;;;;;;;;;;4989369;28;20531;-82
2023/09/10 02:35:58;;;;;;;7.65;4.00;;;;;;;;;;4988567;28;20030;-82
2023/09/10 02:38:24;;;;;;;5.53;3.90;;;;;;;;;;4998151;28;20531;-82
2023/09/10 02:40:50;;;;;;;9.10;5.00;;;;;;;;;;4992170;28;20046;-82
2023/09/10 02:43:16;;;;;;;6.45;4.13;;;;;;;;;;5000584;28;20073;-82
2023/09/10 02:45:51;;;;;;;7.88;4.97;;;;;;;;;;4989512;28;20030;-82
2023/09/10 02:48:17;;;;;;;6.80;4.70;;;;;;;;;;4989245;28;20050;-82
2023/09/10 02:50:42;;;;;;;7.05;4.60;;;;;;;;;;4989811;28;20034;-82
2023/09/10 02:53:08;;;;;;;5.53;3.53;;;;;;;;;;4990945;28;20026;-82
2023/09/10 02:55:34;;;;;;;6.65;4.28;;;;;;;;;;4989112;28;20041;-82
2023/09/10 02:58:00;;;;;;;6.47;4.32;;;;;;;;;;4989410;28;20730;-83
2023/09/10 03:00:26;;;;;;;11.27;4.30;;;;;;;;;;4989432;28;20038;-83
2023/09/10 03:02:54;;;;;;;7.97;3.95;;;;;;;;;;4984253;28;20026;-82
2023/09/10 03:05:20;;;;;;;6.03;4.25;;;;;;;;;;4988539;28;20074;-83
2023/09/10 03:07:46;;;;;;;9.05;4.75;;;;;;;;;;4989416;28;20026;-82
2023/09/10 03:10:12;;;;;;;5.57;3.47;;;;;;;;;;4985977;28;20030;-82
2023/09/10 03:12:38;;;;;;;5.97;3.63;;;;;;;;;;4989892;28;20423;-82
2023/09/10 03:15:04;;;;;;;6.47;4.10;;;;;;;;;;4989608;28;20030;-82
2023/09/10 03:17:30;;;;;;;7.15;4.65;;;;;;;;;;4994512;28;20093;-83
2023/09/10 03:19:56;;;;;;;10.73;4.43;;;;;;;;;;4987079;28;20267;-82
2023/09/10 03:22:22;;;;;;;8.13;4.35;;;;;;;;;;4989543;28;20385;-82
2023/09/10 03:24:48;;;;;;;7.22;4.82;;;;;;;;;;4990230;28;20034;-83
2023/09/10 03:27:14;;;;;;;13.45;4.95;;;;;;;;;;4988702;28;20174;-82
2023/09/10 03:29:42;;;;;;;7.38;4.65;;;;;;;;;;4982307;28;20031;-82
2023/09/10 03:32:08;;;;;;;5.43;3.90;;;;;;;;;;4989328;28;20042;-82
2023/09/10 03:34:34;;;;;;;6.53;4.18;;;;;;;;;;4990253;28;20030;-82
2023/09/10 03:37:00;;;;;;;7.40;4.20;;;;;;;;;;4986421;28;20026;-82
2023/09/10 03:39:27;;;;;;;7.68;4.32;;;;;;;;;;4986991;28;20026;-82
2023/09/10 03:41:53;;;;;;;7.53;4.32;;;;;;;;;;4989008;28;20532;-83
2023/09/10 03:44:20;;;;;;;6.30;4.65;;;;;;;;;;4989066;28;20034;-82
2023/09/10 03:46:46;;;;;;;6.97;4.25;;;;;;;;;;4987469;28;20392;-82
2023/09/10 03:49:12;;;;;;;7.40;4.40;;;;;;;;;;4986886;28;20431;-83
2023/09/10 03:51:39;;;;;;;6.15;3.42;;;;;;;;;;4988596;28;20061;-82
2023/09/10 03:54:07;;;;;;;8.93;4.85;;;;;;;;;;4989963;28;20033;-82
2023/09/10 03:56:33;;;;;;;6.93;3.45;;;;;;;;;;4987354;28;20733;-82
2023/09/10 03:58:59;;;;;;;6.13;3.90;;;;;;;;;;4987627;28;20037;-82
2023/09/10 04:01:25;;;;;;;5.55;3.72;;;;;;;;;;4986529;28;20059;-82
2023/09/10 04:03:51;;;;;;;5.60;3.85;;;;;;;;;;4985366;28;20097;-83
2023/09/10 04:06:17;;;;;;;6.97;4.10;;;;;;;;;;4989977;28;20521;-82
2023/09/10 04:08:43;;;;;;;6.10;3.80;;;;;;;;;;4981038;28;20049;-82
2023/09/10 04:11:09;;;;;;;6.15;3.47;;;;;;;;;;4985202;28;20093;-82
2023/09/10 04:13:35;;;;;;;7.20;4.40;;;;;;;;;;4992674;28;20222;-82
2023/09/10 04:16:01;;;;;;;8.40;4.60;;;;;;;;;;4993327;28;20030;-82
2023/09/10 04:18:27;;;;;;;9.07;4.03;;;;;;;;;;4981376;28;20018;-82
2023/09/10 04:20:53;;;;;;;6.47;4.20;;;;;;;;;;4993548;28;20065;-82
2023/09/10 04:23:19;;;;;;;7.07;3.65;;;;;;;;;;4986000;28;20029;-82
2023/09/10 04:25:45;;;;;;;6.57;4.32;;;;;;;;;;4989824;28;20100;-82
2023/09/10 04:28:11;;;;;;;7.85;4.13;;;;;;;;;;4991648;28;20572;-82
2023/09/10 04:30:39;;;;;;;5.60;4.07;;;;;;;;;;4982832;28;20615;-81
2023/09/10 04:33:05;;;;;;;6.32;3.92;;;;;;;;;;4990015;28;20022;-82
2023/09/10 04:35:31;;;;;;;7.05;3.70;;;;;;;;;;4986601;28;20077;-82
2023/09/10 04:37:57;;;;;;;4.93;3.30;;;;;;;;;;4994169;28;20046;-82
2023/09/10 04:40:23;;;;;;;6.97;3.72;;;;;;;;;;4987118;28;20022;-82
2023/09/10 04:42:51;;;;;;;5.03;3.40;;;;;;;;;;5004545;28;20028;-82
2023/09/10 04:45:17;;;;;;;6.13;3.90;;;;;;;;;;4997480;28;20495;-82
2023/09/10 04:47:43;;;;;;;8.18;3.65;;;;;;;;;;4991678;28;20030;-82
2023/09/10 04:50:12;;;;;;;4.60;3.15;;;;;;;;;;4993468;28;20019;-83
2023/09/10 04:52:38;;;;;;;5.88;3.75;;;;;;;;;;4997936;28;20038;-82
2023/09/10 04:55:04;;;;;;;5.68;3.60;;;;;;;;;;4998220;28;20081;-82
2023/09/10 04:57:30;;;;;;;8.57;3.85;;;;;;;;;;4991593;28;20496;-82
2023/09/10 05:00:02;;;;;;;4.55;3.20;;;;;;;;;;4994074;28;20018;-84
2023/09/10 05:02:28;;;;;;;7.53;3.97;;;;;;;;;;4992982;28;20038;-82
2023/09/10 05:04:57;;;;;;;4.93;3.47;;;;;;;;;;5003015;28;20428;-82
2023/09/10 05:07:23;;;;;;;8.05;4.40;;;;;;;;;;5007886;28;20041;-83
2023/09/10 05:09:49;;;;;;;6.75;3.78;;;;;;;;;;5007099;28;20033;-82
2023/09/10 05:12:15;;;;;;;6.13;4.15;;;;;;;;;;5008690;28;20033;-82
2023/09/10 05:14:41;;;;;;;5.10;3.47;;;;;;;;;;4996459;28;20030;-82
2023/09/10 05:17:07;;;;;;;5.95;3.78;;;;;;;;;;5006854;28;20026;-83
2023/09/10 05:19:33;;;;;;;6.38;3.90;;;;;;;;;;5009232;28;20033;-82
2023/09/10 05:21:59;;;;;;;6.50;3.72;;;;;;;;;;5006367;28;20471;-82
2023/09/10 05:24:25;;;;;;;6.82;3.67;;;;;;;;;;5005968;28;20228;-82
2023/09/10 05:26:51;;;;;;;5.57;3.38;;;;;;;;;;5005616;28;20041;-81
2023/09/10 05:29:17;;;;;;;6.60;3.67;;;;;;;;;;5005735;28;20027;-81
2023/09/10 05:31:43;;;;;;;6.95;3.63;;;;;;;;;;5000137;28;20412;-81
2023/09/10 05:34:09;;;;;;;5.35;3.45;;;;;;;;;;5004331;28;20104;-80
2023/09/10 05:36:35;;;;;;;4.60;3.20;;;;;;;;;;5006384;28;20041;-81
2023/09/10 05:39:01;;;;;;;5.93;3.60;;;;;;;;;;5004727;28;20033;-80
2023/09/10 05:41:27;;;;;;;6.70;3.95;;;;;;;;;;5013002;28;20030;-81
2023/09/10 05:43:53;;;;;;;5.43;3.42;;;;;;;;;;5010666;28;20036;-80
2023/09/10 05:46:19;;;;;;;5.05;3.05;;;;;;;;;;5006805;28;20037;-79
2023/09/10 05:48:45;;;;;;;5.57;3.70;;;;;;;;;;5008258;28;20022;-79
2023/09/10 05:51:11;;;;;;;5.45;3.63;;;;;;;;;;5004019;28;20026;-79
2023/09/10 05:53:40;;;;;;;6.00;3.55;;;;;;;;;;5005733;28;20698;-80
2023/09/10 05:56:06;;;;;;;6.70;4.32;;;;;;;;;;5009610;28;20030;-79
2023/09/10 05:58:32;;;;;;;6.35;3.63;;;;;;;;;;5007054;28;20037;-79
2023/09/10 06:00:58;;;;;;;5.25;3.05;;;;;;;;;;5006888;28;20026;-80
2023/09/10 06:03:24;;;;;;;6.32;3.60;;;;;;;;;;5001652;28;20030;-80
2023/09/10 06:05:50;;;;;;;5.78;3.80;;;;;;;;;;4989550;28;20054;-79
2023/09/10 06:08:16;;;;;;;4.70;2.88;;;;;;;;;;4994374;28;20035;-79
2023/09/10 06:10:42;;;;;;;7.15;3.72;;;;;;;;;;4987125;28;20026;-80
2023/09/10 06:13:08;;;;;;;5.40;3.45;;;;;;;;;;4988002;28;20034;-79
2023/09/10 06:15:34;;;;;;;7.45;4.15;;;;;;;;;;4990439;28;20031;-80
2023/09/10 06:18:00;;;;;;;6.15;3.17;;;;;;;;;;4987533;28;20058;-79
2023/09/10 06:20:26;;;;;;;5.13;3.25;;;;;;;;;;4987591;28;20148;-79
2023/09/10 06:22:52;;;;;;;5.82;3.55;;;;;;;;;;4988939;28;20026;-80
2023/09/10 06:25:19;;;;;;;5.50;3.80;;;;;;;;;;4986289;28;20500;-79
2023/09/10 06:27:44;;;;;;;8.32;3.95;;;;;;;;;;4987751;28;20100;-79
2023/09/10 06:30:11;;;;;;;5.70;3.35;;;;;;;;;;5002307;28;20447;-77
2023/09/10 06:32:37;;;;;;;5.22;3.75;;;;;;;;;;4993337;28;20391;-77
2023/09/10 06:35:03;;;;;;;6.93;3.65;;;;;;;;;;4990543;28;20035;-85
2023/09/10 06:37:29;;;;;;;5.85;3.33;;;;;;;;;;4989078;28;20462;-86
2023/09/10 06:39:55;;;;;;;6.45;4.13;;;;;;;;;;4991754;28;20027;-85
2023/09/10 06:42:21;;;;;;;6.50;3.75;;;;;;;;;;4995067;28;20034;-85
2023/09/10 06:44:47;;;;;;;5.32;3.47;;;;;;;;;;4991507;28;20019;-85
2023/09/10 06:47:12;;;;;;;6.43;3.60;;;;;;;;;;4989722;28;20022;-84
2023/09/10 06:49:39;;;;;;;4.03;3.13;;;;;;;;;;4995024;28;20029;-85
2023/09/10 06:52:05;;;;;;;4.63;3.53;;;;;;;;;;4989325;28;20026;-86
2023/09/10 06:54:32;;;;;;;5.95;3.83;;;;;;;;;;4991801;28;20489;-78
2023/09/10 06:57:01;;;;;;;7.43;3.42;;;;;;;;;;4988259;28;20172;-77
2023/09/10 06:59:27;;;;;;;6.43;4.05;;;;;;;;;;4990132;28;20054;-77
2023/09/10 07:01:53;;;;;;;10.27;3.80;;;;;;;;;;4988662;28;20030;-77
2023/09/10 07:04:20;;;;;;;7.28;4.07;;;;;;;;;;5004136;28;20050;-77
2023/09/10 07:06:47;;;;;;;6.45;4.22;;;;;;;;;;5011284;28;20026;-77
2023/09/10 07:09:13;;;;;;;7.15;3.88;;;;;;;;;;5009347;28;20034;-77
2023/09/10 07:11:39;;;;;;;5.60;3.75;;;;;;;;;;5004769;28;20030;-77
2023/09/10 07:14:05;;;;;;;6.22;3.85;;;;;;;;;;5007107;28;20059;-77
2023/09/10 07:16:31;;;;;;;7.75;4.47;;;;;;;;;;5010917;28;20064;-77
2023/09/10 07:18:57;;;;;;;5.80;3.92;;;;;;;;;;5008357;28;20030;-79
2023/09/10 07:21:23;;;;;;;7.90;4.43;;;;;;;;;;5008009;28;20034;-82
2023/09/10 07:23:49;;;;;;;7.03;4.28;;;;;;;;;;5006001;28;20108;-78
2023/09/10 07:26:15;;;;;;;9.32;4.80;;;;;;;;;;5009528;28;20030;-82
2023/09/10 07:28:41;;;;;;;7.05;4.15;;;;;;;;;;5001705;28;20029;-79
2023/09/10 07:31:07;;;;;;;8.65;5.15;;;;;;;;;;5012321;28;20030;-77
2023/09/10 07:33:33;;;;;;;8.18;4.57;;;;;;;;;;5001275;28;20056;-79
2023/09/10 07:36:00;;;;;;;6.88;4.70;;;;;;;;;;5007221;28;20022;-84
2023/09/10 07:38:26;;;;;;;12.07;5.13;;;;;;;;;;5009659;28;20025;-80
2023/09/10 07:40:52;;;;;;;7.20;4.75;;;;;;;;;;5011194;28;20026;-79
2023/09/10 07:43:17;;;;;;;8.23;5.03;;;;;;;;;;5006609;28;20072;-79
2023/09/10 07:45:45;;;;;;;5.20;3.78;;;;;;;;;;5013604;28;20025;-80
2023/09/10 07:48:12;;;;;;;11.25;5.07;;;;;;;;;;5011771;28;20088;-81
2023/09/10 07:50:38;;;;;;;5.97;4.38;;;;;;;;;;5014668;28;20041;-80
2023/09/10 07:53:04;;;;;;;6.82;4.35;;;;;;;;;;5011516;28;20117;-81
2023/09/10 07:55:30;;;;;;;6.57;4.07;;;;;;;;;;4996985;28;20030;-80
2023/09/10 07:57:56;;;;;;;7.47;4.50;;;;;;;;;;5007016;28;20018;-79
2023/09/10 08:00:22;;;;;;;7.25;4.28;;;;;;;;;;5011456;28;20049;-79
2023/09/10 08:02:48;;;;;;;7.47;4.00;;;;;;;;;;5010855;28;20092;-80
2023/09/10 08:05:14;;;;;;;6.97;4.30;;;;;;;;;;5015308;28;20038;-86
2023/09/10 08:07:40;;;;;;;7.47;4.18;;;;;;;;;;5006957;28;20032;-79
2023/09/10 08:10:06;;;;;;;5.30;3.78;;;;;;;;;;5011716;28;20480;-91
2023/09/10 08:12:32;;;;;;;5.93;3.60;;;;;;;;;;5010593;28;20045;-88
2023/09/10 08:14:58;;;;;;;8.63;4.93;;;;;;;;;;5006499;28;20033;-87
2023/09/10 08:17:24;;;;;;;7.28;4.03;;;;;;;;;;5017320;28;20052;-86
2023/09/10 08:19:50;;;;;;;8.43;4.50;;;;;;;;;;5009262;28;20109;-79
2023/09/10 08:22:16;;;;;;;6.20;4.00;;;;;;;;;;5005558;28;20053;-80
2023/09/10 08:24:42;;;;;;;6.75;4.07;;;;;;;;;;5016269;28;20060;-78
2023/09/10 08:27:11;;;;;;;11.85;4.10;;;;;;;;;;5006110;28;20476;-89
2023/09/10 08:29:37;;;;;;;11.30;4.28;;;;;;;;;;5001864;28;20048;-90
2023/09/10 08:32:03;;;;;;;5.32;3.58;;;;;;;;;;5011029;28;20022;-86
2023/09/10 08:34:29;;;;;;;8.07;3.20;;;;;;;;;;5009917;28;20030;-88
2023/09/10 08:36:55;;;;;;;8.98;4.07;;;;;;;;;;5017394;28;20029;-89
2023/09/10 08:39:22;;;;;;;11.00;4.20;;;;;;;;;;5013386;28;20546;-90
2023/09/10 08:41:58;;;;;;;6.07;3.60;;;;;;;;;;5008068;28;20049;-83
2023/09/10 08:44:25;;;;;;;7.38;3.97;;;;;;;;;;5007656;28;20029;-83
2023/09/10 08:46:51;;;;;;;11.10;3.65;;;;;;;;;;5008487;28;20026;-83
2023/09/10 08:49:18;;;;;;;5.90;3.20;;;;;;;;;;4999939;28;20041;-83
2023/09/10 08:51:44;;;;;;;5.57;3.75;;;;;;;;;;5001655;28;20025;-84
2023/09/10 08:54:11;;;;;;;5.28;3.08;;;;;;;;;;5006363;28;20177;-83
2023/09/10 08:56:37;;;;;;;4.72;3.65;;;;;;;;;;5005561;28;20439;-85
2023/09/10 08:59:05;;;;;;;5.97;3.67;;;;;;;;;;4996703;28;20027;-86
2023/09/10 09:01:32;;;;;;;5.55;3.28;;;;;;;;;;4995765;28;20477;-83
2023/09/10 09:03:58;;;;;;;4.97;2.75;;;;;;;;;;5003915;28;20078;-82
2023/09/10 09:06:27;;;;;;;5.00;3.20;;;;;;;;;;5015479;28;20040;-80
2023/09/10 09:08:55;;;;;;;7.53;2.92;;;;;;;;;;5008081;28;20029;-78
2023/09/10 09:11:22;;;;;;;5.72;3.15;;;;;;;;;;5008299;28;20037;-78
2023/09/10 09:13:49;;;;;;;7.07;3.80;;;;;;;;;;5002734;28;20023;-77
2023/09/10 09:16:16;;;;;;;4.38;2.85;;;;;;;;;;4999322;28;20468;-77
2023/09/10 09:18:42;;;;;;;6.55;3.33;;;;;;;;;;5006788;28;20407;-77
2023/09/10 09:21:11;;;;;;;5.32;3.20;;;;;;;;;;5006616;28;20037;-77
2023/09/10 09:23:43;;;;;;;4.03;2.50;;;;;;;;;;5006058;28;20476;-77
2023/09/10 09:26:10;;;;;;;3.33;2.33;;;;;;;;;;5001769;28;20492;-77
2023/09/10 09:28:36;;;;;;;5.03;2.80;;;;;;;;;;5014584;28;20033;-78
2023/09/10 09:31:02;;;;;;;4.68;2.80;;;;;;;;;;5009262;28;20036;-77
2023/09/10 09:33:28;;;;;;;3.88;2.53;;;;;;;;;;5005777;28;20125;-77
2023/09/10 09:35:54;;;;;;;4.20;2.20;;;;;;;;;;5015292;28;20034;-78
2023/09/10 09:38:20;;;;;;;4.68;2.55;;;;;;;;;;5010786;28;20038;-77
2023/09/10 09:40:47;;;;;;;3.58;2.60;;;;;;;;;;5008508;28;20032;-77
2023/09/10 09:43:13;;;;;;;5.85;2.63;;;;;;;;;;5005114;28;20507;-78
2023/09/10 09:45:39;;;;;;;3.25;2.28;;;;;;;;;;5010526;28;20037;-78
2023/09/10 09:48:06;;;;;;;5.13;2.45;;;;;;;;;;5007675;28;20030;-78
2023/09/10 09:50:32;;;;;;;4.47;3.00;;;;;;;;;;5007027;28;20069;-77
2023/09/10 09:52:58;;;;;;;4.72;2.67;;;;;;;;;;4999439;28;20053;-74
2023/09/10 09:55:30;;;;;;;4.18;2.70;;;;;;;;;;4999174;28;20030;-75
2023/09/10 09:57:56;;;;;;;5.25;2.50;;;;;;;;;;4999217;28;20026;-76
2023/09/10 10:00:24;;;;;;;3.70;2.65;;;;;;;;;;5000240;28;20062;-76
2023/09/10 10:02:51;;;;;;;6.88;2.40;;;;;;;;;;5002140;28;20057;-76
2023/09/10 10:05:18;;;;;;;4.88;2.95;;;;;;;;;;5002213;28;20065;-76
2023/09/10 10:07:44;;;;;;;5.05;2.67;;;;;;;;;;5000615;28;20022;-76
2023/09/10 10:10:15;;;;;;;3.10;2.47;;;;;;;;;;5000763;28;20249;-76
2023/09/10 10:12:41;;;;;;;;;;;;;;;;;;4999861;28;20031;-75
2023/09/10 10:15:08;;;;;;;5.00;2.85;;;;;;;;;;4998876;28;20378;-76
2023/09/10 10:17:35;;;;;;;4.57;2.35;;;;;;;;;;4999815;28;20054;-75
2023/09/10 10:20:04;;;;;;;3.40;2.50;;;;;;;;;;4999832;28;20049;-76
2023/09/10 10:22:31;;;;;;;6.35;2.88;;;;;;;;;;5003051;28;20543;-75
2023/09/10 10:24:57;;;;;;;4.53;3.03;;;;;;;;;;4999963;28;20021;-76
2023/09/10 10:27:25;;;;;;;4.10;2.25;;;;;;;;;;5002102;28;20030;-75
2023/09/10 10:29:51;;;;;;;6.43;2.30;;;;;;;;;;4998554;28;20022;-75
2023/09/10 10:32:20;;;;;;;4.50;2.08;;;;;;;;;;5002451;28;20384;-75
2023/09/10 10:34:49;;;;;;;4.82;2.83;;;;;;;;;;4999895;28;20389;-76
2023/09/10 10:37:17;;;;;;;2.65;1.98;;;;;;;;;;5013381;28;20022;-75
2023/09/10 10:40:06;;;;;;;3.80;2.35;;;;;;;;;;4999150;28;20036;-75
2023/09/10 10:42:52;;;;;;;12.88;2.92;;;;;;;;;;4998786;28;20068;-76
2023/09/10 10:45:19;;;;;;;3.42;2.28;;;;;;;;;;4990885;28;20046;-75
2023/09/10 10:47:47;;;;;;;2.20;1.85;;;;;;;;;;5002206;28;20485;-75
2023/09/10 10:50:14;;;;;;;4.78;3.00;;;;;;;;;;4998665;28;20049;-75
2023/09/10 10:52:44;;;;;;;14.40;3.00;;;;;;;;;;5002440;28;20026;-76
2023/09/10 10:55:11;;;;;;;3.35;2.00;;;;;;;;;;5001631;28;20038;-75
2023/09/10 10:57:37;;;;;;;4.22;2.10;;;;;;;;;;4999363;28;20045;-75
2023/09/10 11:00:07;;;;;;;4.35;2.80;;;;;;;;;;4999009;28;20488;-75
2023/09/10 11:02:33;;;;;;;3.78;2.28;;;;;;;;;;5008995;28;20396;-75
2023/09/10 11:05:17;;;;;;;3.72;2.47;;;;;;;;;;4994929;28;20042;-75
2023/09/10 11:07:45;;;;;;;3.72;2.58;;;;;;;;;;5004953;28;20022;-78
2023/09/10 11:10:29;;;;;;;3.97;2.80;;;;;;;;;;4997474;28;20053;-79
2023/09/10 11:13:12;;;;;;;3.83;2.65;;;;;;;;;;5003941;28;20483;-78
2023/09/10 11:15:58;;;;;;;4.28;2.42;;;;;;;;;;4993365;28;20088;-79
2023/09/10 11:18:36;;;;;;;3.75;2.60;;;;;;;;;;4991360;28;20034;-78
2023/09/10 11:21:07;;;;;;;4.30;2.95;;;;;;;;;;4994959;28;20036;-79
2023/09/10 11:23:33;;;;;;;3.70;2.53;;;;;;;;;;5005356;28;20029;-79
2023/09/10 11:26:11;;;;;;;4.35;2.70;;;;;;;;;;5003220;28;20061;-79
2023/09/10 11:28:50;;;;;;;4.93;2.40;;;;;;;;;;5005613;28;20120;-79
2023/09/10 11:31:29;;;;;;;3.45;2.22;;;;;;;;;;5010381;28;20049;-82
2023/09/10 11:33:58;;;;;;;5.70;2.38;;;;;;;;;;5005251;28;20042;-76
2023/09/10 11:36:26;;;;;;;3.47;2.28;;;;;;;;;;5007245;28;20055;-76
2023/09/10 11:38:55;;;;;;;3.90;2.47;;;;;;;;;;5013336;28;20534;-80
2023/09/10 11:41:22;;;;;;;3.88;2.50;;;;;;;;;;5012054;28;20028;-77
2023/09/10 11:43:51;;;;;;;3.40;2.45;;;;;;;;;;5009456;28;20030;-79
2023/09/10 11:46:17;;;;;;;3.25;2.25;;;;;;;;;;4992076;28;20033;-78
2023/09/10 11:48:44;;;;;;;3.83;2.47;;;;;;;;;;5001938;28;20026;-79
2023/09/10 11:51:10;;;;;;;2.97;1.98;;;;;;;;;;5006269;28;20484;-80
2023/09/10 11:53:36;;;;;;;3.47;2.45;;;;;;;;;;5006564;28;20030;-80
2023/09/10 11:56:02;;;;;;;3.03;2.20;;;;;;;;;;5001819;28;20037;-79
2023/09/10 11:58:28;;;;;;;3.15;2.35;;;;;;;;;;4999239;28;20044;-84
2023/09/10 12:00:54;;;;;;;2.40;1.60;;;;;;;;;;5003009;28;20018;-79
2023/09/10 12:03:21;;;;;;;2.92;2.20;;;;;;;;;;5004595;28;20034;-78
2023/09/10 12:05:47;;;;;;;2.55;2.00;;;;;;;;;;5001880;28;20520;-77
2023/09/10 12:08:13;;;;;;;4.20;2.15;;;;;;;;;;5003055;28;20126;-77
2023/09/10 12:10:39;;;;;;;4.05;2.40;;;;;;;;;;4998420;28;20432;-77
2023/09/10 12:13:06;;;;;;;4.63;2.63;;;;;;;;;;5010737;28;20172;-77
2023/09/10 12:15:33;;;;;;;6.10;2.30;;;;;;;;;;5004971;28;20058;-78
2023/09/10 12:18:04;;;;;;;4.20;2.17;;;;;;;;;;5003055;28;20018;-78
2023/09/10 12:20:30;;;;;;;3.30;2.27;;;;;;;;;;5004452;28;20108;-76
2023/09/10 12:22:56;;;;;;;3.55;2.20;;;;;;;;;;5006200;28;20109;-77
2023/09/10 12:25:22;;;;;;;3.35;2.05;;;;;;;;;;5006604;28;20113;-77
2023/09/10 12:27:48;;;;;;;3.22;2.20;;;;;;;;;;5010491;28;20026;-77
2023/09/10 12:30:14;;;;;;;2.95;2.65;;;;;;;;;;4998982;28;20034;-77
2023/09/10 12:32:40;;;;;;;3.38;2.13;;;;;;;;;;5001626;28;20125;-78
2023/09/10 12:35:06;;;;;;;2.65;2.05;;;;;;;;;;4998124;28;20030;-75
2023/09/10 12:37:32;;;;;;;4.07;2.05;;;;;;;;;;4997252;28;20023;-77
2023/09/10 12:39:59;;;;;;;3.72;2.30;;;;;;;;;;5009321;28;20663;-78
2023/09/10 12:42:25;;;;;;;3.72;2.25;;;;;;;;;;5005588;28;20040;-76
2023/09/10 12:44:51;;;;;;;4.20;2.10;;;;;;;;;;4999157;28;20034;-78
2023/09/10 12:47:17;;;;;;;2.28;1.80;;;;;;;;;;5014458;28;20183;-79
2023/09/10 12:49:43;;;;;;;4.55;2.53;;;;;;;;;;5000330;28;20109;-79
2023/09/10 12:52:09;;;;;;;2.60;2.10;;;;;;;;;;5003940;28;20033;-79
2023/09/10 12:54:35;;;;;;;4.97;2.75;;;;;;;;;;4997470;28;20062;-79
2023/09/10 12:57:02;;;;;;;3.65;2.42;;;;;;;;;;5006114;28;20113;-79
2023/09/10 12:59:28;;;;;;;3.80;2.42;;;;;;;;;;5005253;28;20026;-79
2023/09/10 13:01:54;;;;;;;3.10;2.35;;;;;;;;;;5006572;28;20033;-75
2023/09/10 13:04:20;;;;;;;3.08;2.38;;;;;;;;;;5013530;28;20050;-79
2023/09/10 13:06:46;;;;;;;4.10;2.13;;;;;;;;;;5008687;28;20033;-78
2023/09/10 13:09:13;;;;;;;3.60;2.60;;;;;;;;;;5000136;28;20033;-78
2023/09/10 13:11:40;;;;;;;3.22;2.13;;;;;;;;;;5008485;28;20399;-76
2023/09/10 13:14:06;;;;;;;3.80;2.22;;;;;;;;;;5011910;28;20116;-79
2023/09/10 13:16:32;;;;;;;3.00;2.15;;;;;;;;;;5016593;28;20088;-79
2023/09/10 13:18:58;;;;;;;3.00;2.20;;;;;;;;;;5011463;28;20033;-79
2023/09/10 13:21:23;;;;;;;3.85;2.30;;;;;;;;;;5001897;28;20041;-79
2023/09/10 13:23:49;;;;;;;5.35;2.97;;;;;;;;;;5015057;28;20029;-79
2023/09/10 13:26:15;;;;;;;3.28;2.08;;;;;;;;;;5005960;28;20037;-78
2023/09/10 13:28:41;;;;;;;2.75;2.00;;;;;;;;;;5016201;28;20029;-78
2023/09/10 13:31:07;;;;;;;4.32;1.77;;;;;;;;;;5005488;28;20029;-79
2023/09/10 13:33:33;;;;;;;6.30;2.30;;;;;;;;;;5012902;28;20087;-78
2023/09/10 13:35:59;;;;;;;4.00;2.08;;;;;;;;;;5004413;28;20034;-77
2023/09/10 13:38:25;;;;;;;4.40;2.60;;;;;;;;;;5016449;28;20029;-77
2023/09/10 13:40:56;;;;;;;2.45;2.05;;;;;;;;;;5003825;28;20023;-77
2023/09/10 13:43:22;;;;;;;4.80;2.40;;;;;;;;;;5013571;28;20081;-77
2023/09/10 13:45:48;;;;;;;3.47;2.33;;;;;;;;;;5001825;28;20120;-77
2023/09/10 13:48:15;;;;;;;5.15;2.63;;;;;;;;;;5010798;28;20450;-77
2023/09/10 13:50:41;;;;;;;3.20;2.47;;;;;;;;;;5008962;28;20480;-77
2023/09/10 13:53:07;;;;;;;2.90;2.13;;;;;;;;;;5010167;28;20034;-78
2023/09/10 13:55:33;;;;;;;3.83;2.50;;;;;;;;;;5003229;28;20037;-78
2023/09/10 13:57:59;;;;;;;3.30;2.13;;;;;;;;;;5007070;28;20033;-84
2023/09/10 14:00:25;;;;;;;3.97;2.38;;;;;;;;;;5011693;28;20090;-77
2023/09/10 14:02:51;;;;;;;4.75;2.30;;;;;;;;;;5006563;28;20117;-77
2023/09/10 14:05:17;;;;;;;4.00;2.67;;;;;;;;;;5000031;28;20539;-77
2023/09/10 14:07:42;;;;;;;4.03;2.33;;;;;;;;;;5008043;28;20392;-77
2023/09/10 14:10:08;;;;;;;3.60;2.40;;;;;;;;;;5007451;28;20030;-77
2023/09/10 14:12:34;;;;;;;2.95;1.92;;;;;;;;;;4994064;28;20039;-78
2023/09/10 14:15:00;;;;;;;3.47;2.33;;;;;;;;;;5007521;28;20033;-78
2023/09/10 14:17:27;;;;;;;2.90;2.10;;;;;;;;;;5006934;28;20026;-77
2023/09/10 14:19:53;;;;;;;2.88;2.03;;;;;;;;;;4995827;28;20022;-77
2023/09/10 14:22:19;;;;;;;3.67;2.50;;;;;;;;;;5013251;28;20044;-77
2023/09/10 14:24:45;;;;;;;3.20;2.20;;;;;;;;;;5003857;28;20033;-77
2023/09/10 14:27:11;;;;;;;3.95;2.45;;;;;;;;;;5000428;28;20018;-78
2023/09/10 14:29:37;;;;;;;2.47;2.15;;;;;;;;;;5007320;28;20364;-79
2023/09/10 14:32:03;;;;;;;3.40;2.00;;;;;;;;;;5006798;28;20022;-79
2023/09/10 14:34:29;;;;;;;2.33;2.10;;;;;;;;;;5005721;28;20096;-80
2023/09/10 14:36:55;;;;;;;2.47;2.28;;;;;;;;;;5008203;28;20026;-82
2023/09/10 14:39:21;;;;;;;4.50;3.17;;;;;;;;;;5008348;28;20028;-78
2023/09/10 14:41:47;;;;;;;6.43;4.15;;;;;;;;;;5008940;28;20089;-80
2023/09/10 14:44:13;;;;;;;7.38;4.75;;;;;;;;;;5005757;28;20022;-76